Time;durP1;ratioP1;P1;durP2;ratioP2;P2;SDS_P1;SDS_P2;PMS_P1;PMS_P2;Temp;Humidity;BMP_temperature;BMP_pressure;BME280_temperature;BME280_humidity;BME280_pressure;Samples;Min_cycle;Max_cycle;Signal;HPM_P1;HPM_P2
2022/03/07 00:00:15;;;;;;;10.97;5.50;;;;;;;1.95;89.18;94532.53;5080836;28;20712;-80
2022/03/07 00:02:41;;;;;;;8.77;4.00;;;;;;;2.09;89.71;94554.38;5085706;28;20245;-80
2022/03/07 00:05:56;;;;;;;11.80;5.30;;;;;;;2.03;89.23;94560.25;5084237;28;20205;-79
2022/03/07 00:08:21;;;;;;;10.40;5.43;;;;;;;1.90;89.67;94552.97;5083566;28;20205;-80
2022/03/07 00:10:47;;;;;;;9.57;4.73;;;;;;;1.99;89.69;94561.56;5083328;28;20208;-79
2022/03/07 00:13:19;;;;;;;10.13;4.67;;;;;;;1.81;90.21;94549.59;5083811;28;20227;-79
2022/03/07 00:15:45;;;;;;;11.40;5.40;;;;;;;1.85;90.47;94534.50;5079785;28;20937;-79
2022/03/07 00:18:10;;;;;;;12.27;5.20;;;;;;;2.06;90.05;94554.72;5080120;28;20185;-79
2022/03/07 00:20:36;;;;;;;12.17;5.10;;;;;;;2.10;90.08;94546.44;5082246;28;20180;-80
2022/03/07 00:23:01;;;;;;;9.23;4.53;;;;;;;1.86;88.90;94513.56;5085453;28;20173;-80
2022/03/07 00:25:27;;;;;;;7.80;4.63;;;;;;;2.02;89.93;94549.03;5084195;28;20554;-79
2022/03/07 00:27:52;;;;;;;9.00;5.23;;;;;;;2.02;90.51;94548.22;5083338;28;20177;-79
2022/03/07 00:30:18;;;;;;;9.40;5.00;;;;;;;1.94;90.00;94530.09;5082526;28;20180;-79
2022/03/07 00:32:44;;;;;;;11.70;5.00;;;;;;;1.90;90.61;94540.00;5085464;28;20200;-79
2022/03/07 00:35:10;;;;;;;10.73;5.40;;;;;;;1.84;90.64;94520.69;5077385;28;20218;-79
2022/03/07 00:59:01;;;;;;;10.40;5.13;;;;;;;2.04;89.62;94515.16;5124163;27;21080;-78
2022/03/07 01:01:27;;;;;;;10.27;5.13;;;;;;;1.90;89.16;94490.72;5122990;27;20184;-81
2022/03/07 01:03:52;;;;;;;8.60;5.30;;;;;;;2.20;88.64;94539.25;5124185;27;20184;-80
2022/03/07 01:06:18;;;;;;;9.93;5.00;;;;;;;2.21;89.58;94538.28;5115111;27;20626;-80
2022/03/07 01:08:43;;;;;;;11.70;5.40;;;;;;;2.01;89.65;94494.69;5120789;28;20211;-79
2022/03/07 01:11:10;;;;;;;9.23;5.10;;;;;;;2.36;88.93;94527.19;5120635;28;20181;-80
2022/03/07 01:13:35;;;;;;;10.67;6.03;;;;;;;2.23;89.31;94501.78;5119824;28;20226;-79
2022/03/07 01:16:01;;;;;;;9.57;5.20;;;;;;;2.14;88.86;94503.59;5117116;27;20173;-80
2022/03/07 01:18:26;;;;;;;8.13;5.07;;;;;;;2.10;89.42;94504.09;5116486;27;20255;-80
2022/03/07 01:20:52;;;;;;;9.70;5.33;;;;;;;2.08;88.91;94496.47;5109808;28;20165;-80
2022/03/07 01:23:18;;;;;;;9.13;4.93;;;;;;;2.04;89.28;94491.78;5109571;28;20161;-80
2022/03/07 01:25:43;;;;;;;8.33;4.57;;;;;;;1.92;89.09;94495.69;5109562;28;20609;-80
2022/03/07 01:28:09;;;;;;;12.27;5.37;;;;;;;1.69;89.68;94470.47;5109098;28;20181;-80
2022/03/07 01:30:35;;;;;;;9.33;5.17;;;;;;;1.89;89.92;94508.06;5109439;28;20192;-79
2022/03/07 01:33:00;;;;;;;6.70;4.37;;;;;;;1.80;89.88;94492.69;5109144;28;20203;-80
2022/03/07 01:35:25;;;;;;;8.27;4.23;;;;;;;1.90;90.00;94501.88;5107790;28;20209;-80
2022/03/07 01:37:51;;;;;;;6.80;4.13;;;;;;;1.93;89.39;94507.72;5109309;28;20233;-80
2022/03/07 01:40:16;;;;;;;6.13;3.83;;;;;;;1.79;89.77;94491.88;5109272;28;20538;-80
2022/03/07 01:42:42;;;;;;;7.47;4.23;;;;;;;1.73;89.86;94470.97;5108945;28;20310;-80
2022/03/07 01:45:13;;;;;;;7.37;3.97;;;;;;;1.83;89.73;94507.88;5107577;27;20165;-80
2022/03/07 01:47:39;;;;;;;5.87;3.97;;;;;;;1.81;90.80;94496.91;5108987;27;20184;-80
2022/03/07 01:50:08;;;;;;;6.47;4.00;;;;;;;1.83;90.65;94492.31;5109030;28;20173;-80
2022/03/07 01:52:40;;;;;;;7.30;3.77;;;;;;;1.73;90.36;94476.16;5109075;28;20537;-80
2022/03/07 01:55:08;;;;;;;6.70;3.57;;;;;;;1.91;90.80;94500.09;5108963;27;20176;-80
2022/03/07 01:57:38;;;;;;;8.37;4.30;;;;;;;2.02;90.48;94501.53;5108464;28;20221;-80
2022/03/07 02:00:08;;;;;;;7.47;4.10;;;;;;;1.99;90.33;94502.66;5095303;28;20185;-80
2022/03/07 02:02:34;;;;;;;10.67;5.13;;;;;;;2.02;89.75;94502.31;5095374;28;20162;-79
2022/03/07 02:04:59;;;;;;;4.60;3.80;;;;;;;1.76;89.84;94468.03;5095388;28;20181;-81
2022/03/07 02:07:25;;;;;;;7.63;3.97;;;;;;;2.07;89.92;94507.03;5095456;28;20185;-81
2022/03/07 02:09:51;;;;;;;7.70;3.93;;;;;;;1.97;89.52;94473.47;5095159;28;20188;-81
2022/03/07 02:12:16;;;;;;;6.03;3.83;;;;;;;1.62;89.01;94425.44;5093523;28;20183;-82
2022/03/07 02:14:41;;;;;;;7.00;3.63;;;;;;;1.59;89.62;94438.72;5093624;28;20174;-81
2022/03/07 02:17:07;;;;;;;5.80;3.73;;;;;;;1.74;89.39;94460.41;5095049;28;20238;-81
2022/03/07 02:19:34;;;;;;;6.23;3.77;;;;;;;2.07;89.03;94499.25;5094734;28;20242;-80
2022/03/07 02:22:01;;;;;;;5.67;4.07;;;;;;;2.03;89.07;94501.34;5095014;28;20154;-80
2022/03/07 02:24:26;;;;;;;8.53;4.57;;;;;;;1.73;88.61;94466.56;5094644;28;20158;-80
2022/03/07 02:27:12;;;;;;;5.50;4.00;;;;;;;1.90;89.15;94495.91;5094443;28;20557;-80
2022/03/07 02:29:38;;;;;;;6.07;3.70;;;;;;;2.02;89.40;94517.09;5103124;28;20226;-79
2022/03/07 02:32:07;;;;;;;6.37;3.83;;;;;;;1.65;89.98;94468.38;5103074;28;20235;-80
2022/03/07 02:34:33;;;;;;;5.97;4.23;;;;;;;1.65;89.21;94455.41;5106198;28;20181;-80
2022/03/07 02:36:58;;;;;;;7.63;4.47;;;;;;;1.92;89.29;94511.28;5098646;28;20170;-80
2022/03/07 02:39:24;;;;;;;5.80;3.93;;;;;;;1.60;89.48;94455.91;5094253;28;20195;-80
2022/03/07 02:41:49;;;;;;;6.67;4.93;;;;;;;1.68;89.96;94468.88;5099913;28;20172;-80
2022/03/07 02:44:15;;;;;;;6.40;4.00;;;;;;;1.99;90.21;94505.25;5105294;28;20652;-80
2022/03/07 02:46:40;;;;;;;4.77;3.90;;;;;;;2.03;88.96;94503.13;5102513;28;20200;-81
2022/03/07 02:49:07;;;;;;;8.07;4.03;;;;;;;2.09;89.01;94503.28;5102609;28;20185;-80
2022/03/07 02:51:34;;;;;;;7.50;4.30;;;;;;;1.99;88.54;94488.91;5104738;28;20186;-80
2022/03/07 02:53:59;;;;;;;6.60;3.87;;;;;;;2.04;88.91;94512.53;5114471;28;20230;-80
2022/03/07 02:56:25;;;;;;;5.53;4.33;;;;;;;1.98;89.50;94497.66;5105031;28;20653;-79
2022/03/07 02:58:50;;;;;;;5.80;4.13;;;;;;;1.76;89.30;94466.25;5102337;28;20213;-79
2022/03/07 03:01:16;;;;;;;6.17;3.87;;;;;;;1.95;89.34;94511.75;5101155;28;20558;-80
2022/03/07 03:03:41;;;;;;;8.17;3.87;;;;;;;1.96;90.53;94502.19;5103369;28;20176;-79
2022/03/07 03:06:07;;;;;;;8.53;5.00;;;;;;;1.89;90.42;94483.91;5099433;28;20272;-80
2022/03/07 03:08:33;;;;;;;7.33;4.47;;;;;;;2.06;90.59;94514.00;5096941;28;20228;-80
2022/03/07 03:10:58;;;;;;;7.80;4.60;;;;;;;2.23;89.82;94519.94;5104518;28;20177;-80
2022/03/07 03:13:24;;;;;;;7.33;4.23;;;;;;;2.26;89.01;94523.00;5106854;28;20176;-80
2022/03/07 03:15:51;;;;;;;7.80;4.47;;;;;;;2.28;88.89;94518.47;5111373;28;20648;-80
2022/03/07 03:18:18;;;;;;;6.63;3.77;;;;;;;2.15;88.88;94507.00;5113852;28;20173;-80
2022/03/07 03:20:45;;;;;;;6.20;3.30;;;;;;;2.23;89.27;94525.16;5114438;28;20169;-79
2022/03/07 03:23:11;;;;;;;7.90;3.63;;;;;;;2.18;89.25;94530.00;5105388;28;20176;-79
2022/03/07 03:25:37;;;;;;;5.80;4.03;;;;;;;2.19;89.92;94523.84;5105414;28;20196;-79
2022/03/07 03:28:03;;;;;;;5.33;3.47;;;;;;;2.07;89.00;94514.81;5102509;27;20193;-79
2022/03/07 03:30:29;;;;;;;7.73;3.63;;;;;;;1.89;89.06;94495.09;5108135;28;20185;-79
2022/03/07 03:32:54;;;;;;;5.93;3.90;;;;;;;1.90;89.73;94520.03;5104338;28;20181;-79
2022/03/07 03:35:20;;;;;;;5.63;3.93;;;;;;;1.88;91.06;94528.97;5101854;28;20299;-79
2022/03/07 03:37:45;;;;;;;6.37;3.83;;;;;;;1.83;91.00;94510.50;5101616;28;20170;-79
2022/03/07 03:40:12;;;;;;;6.50;3.80;;;;;;;1.93;91.48;94518.09;5095342;28;20170;-79
2022/03/07 03:42:37;;;;;;;5.20;3.43;;;;;;;1.82;91.17;94501.88;5104855;28;20188;-79
2022/03/07 03:45:10;;;;;;;4.97;3.63;;;;;;;1.93;90.75;94523.28;5112156;28;20169;-79
2022/03/07 03:47:40;;;;;;;5.97;3.67;;;;;;;1.86;90.98;94523.94;5113923;28;20176;-79
2022/03/07 03:50:09;;;;;;;8.37;3.97;;;;;;;1.82;90.85;94521.84;5113600;28;20158;-79
2022/03/07 03:52:34;;;;;;;5.47;3.40;;;;;;;1.81;91.11;94520.25;5104644;28;20169;-79
2022/03/07 03:55:02;;;;;;;5.93;3.30;;;;;;;1.72;90.80;94509.06;5097070;28;20166;-79
2022/03/07 03:57:28;;;;;;;6.53;3.90;;;;;;;1.71;90.90;94517.00;5108223;28;20327;-79
2022/03/07 03:59:54;;;;;;;6.43;3.67;;;;;;;1.75;91.06;94536.44;5107567;28;20177;-79
2022/03/07 04:02:19;;;;;;;7.47;4.30;;;;;;;1.82;90.98;94543.41;5104702;28;20170;-79
2022/03/07 04:04:45;;;;;;;6.97;3.77;;;;;;;1.58;90.88;94501.13;5104410;28;20721;-79
2022/03/07 04:07:10;;;;;;;7.43;3.87;;;;;;;1.63;90.87;94497.09;5104319;28;20188;-79
2022/03/07 04:09:36;;;;;;;6.50;4.00;;;;;;;1.86;91.27;94533.50;5104408;28;20192;-79
2022/03/07 04:12:01;;;;;;;4.97;3.30;;;;;;;1.90;90.41;94540.78;5107158;28;20178;-79
2022/03/07 04:14:27;;;;;;;6.17;3.97;;;;;;;1.68;90.31;94500.00;5104901;28;20185;-79
2022/03/07 04:16:53;;;;;;;5.77;3.67;;;;;;;1.86;90.77;94528.31;5100661;28;20172;-79
2022/03/07 04:19:18;;;;;;;8.27;3.93;;;;;;;2.01;90.81;94533.63;5099745;28;20161;-79
2022/03/07 04:21:44;;;;;;;8.70;4.23;;;;;;;2.00;90.76;94529.41;5103003;28;20178;-79
2022/03/07 04:24:12;;;;;;;8.37;4.10;;;;;;;1.92;90.64;94506.91;5096221;28;20234;-79
2022/03/07 04:26:38;;;;;;;6.20;4.00;;;;;;;2.03;91.08;94527.31;5092272;28;20688;-79
2022/03/07 04:29:07;;;;;;;8.20;4.77;;;;;;;2.05;89.91;94535.75;5092355;28;20252;-79
2022/03/07 04:31:36;;;;;;;7.37;4.23;;;;;;;2.03;90.12;94531.69;5101960;28;20231;-79
2022/03/07 04:34:02;;;;;;;9.53;5.10;;;;;;;1.96;90.08;94520.38;5103638;28;20205;-79
2022/03/07 04:36:28;;;;;;;8.53;4.80;;;;;;;1.92;90.57;94500.91;5097994;28;20661;-79
2022/03/07 04:38:54;;;;;;;10.53;5.37;;;;;;;2.07;89.99;94515.63;5102282;28;20177;-79
2022/03/07 04:41:19;;;;;;;9.73;5.47;;;;;;;2.17;90.42;94536.19;5112600;28;20214;-79
2022/03/07 04:43:45;;;;;;;7.80;4.50;;;;;;;2.19;91.00;94529.03;5112650;28;20157;-79
2022/03/07 04:46:10;;;;;;;9.60;5.10;;;;;;;2.13;90.83;94514.13;5111163;28;20661;-79
2022/03/07 04:48:36;;;;;;;6.93;5.10;;;;;;;2.25;90.25;94526.56;5112491;28;20207;-79
2022/03/07 04:51:02;;;;;;;11.80;6.60;;;;;;;2.35;90.77;94539.34;5111216;28;20224;-79
2022/03/07 04:53:27;;;;;;;8.87;5.50;;;;;;;2.32;89.70;94526.72;5109322;28;20214;-79
2022/03/07 04:55:53;;;;;;;7.43;5.17;;;;;;;2.39;90.34;94534.66;5100104;28;20184;-79
2022/03/07 04:58:18;;;;;;;7.70;5.57;;;;;;;2.15;89.95;94513.00;5102951;28;20236;-79
2022/03/07 05:00:43;;;;;;;10.07;5.43;;;;;;;2.18;90.37;94502.25;5100124;28;20169;-79
2022/03/07 05:03:09;;;;;;;9.60;4.70;;;;;;;2.18;89.73;94507.47;5108227;28;20238;-79
2022/03/07 05:05:35;;;;;;;6.53;4.33;;;;;;;2.40;89.04;94536.28;5102076;28;20212;-79
2022/03/07 05:08:00;;;;;;;7.97;5.10;;;;;;;2.23;89.15;94512.97;5104061;28;20192;-79
2022/03/07 05:10:26;;;;;;;6.93;4.13;;;;;;;2.07;88.85;94499.25;5100299;28;20162;-79
2022/03/07 05:12:51;;;;;;;6.63;4.30;;;;;;;2.21;89.37;94520.13;5101286;28;20701;-79
2022/03/07 05:15:17;;;;;;;5.80;3.97;;;;;;;2.21;88.27;94529.69;5098246;28;20165;-79
2022/03/07 05:17:44;;;;;;;8.57;3.97;;;;;;;2.15;88.62;94538.16;5109507;28;20249;-79
2022/03/07 05:20:11;;;;;;;6.33;3.50;;;;;;;1.98;89.25;94523.59;5112227;28;20240;-79
2022/03/07 05:22:37;;;;;;;5.27;3.33;;;;;;;2.21;89.39;94543.47;5106799;28;20208;-79
2022/03/07 05:25:05;;;;;;;6.43;3.60;;;;;;;2.03;88.64;94510.94;5100249;28;20220;-79
2022/03/07 05:27:30;;;;;;;6.17;3.80;;;;;;;2.01;88.81;94515.47;5100130;28;20283;-79
2022/03/07 05:29:56;;;;;;;5.13;3.70;;;;;;;2.09;88.98;94542.22;5100255;28;20198;-79
2022/03/07 05:32:21;;;;;;;6.07;3.57;;;;;;;1.82;89.28;94495.88;5110247;28;20617;-79
2022/03/07 05:34:47;;;;;;;5.03;3.43;;;;;;;2.09;90.10;94528.41;5115041;28;20165;-79
2022/03/07 05:37:12;;;;;;;5.77;3.77;;;;;;;1.98;88.33;94526.19;5115919;28;20248;-80
2022/03/07 05:39:37;;;;;;;5.03;3.63;;;;;;;2.12;89.30;94541.88;5114663;28;20622;-79
2022/03/07 05:42:03;;;;;;;7.97;3.93;;;;;;;2.14;88.46;94541.72;5116438;28;20166;-79
2022/03/07 05:44:29;;;;;;;5.97;3.53;;;;;;;2.14;88.33;94546.91;5115736;28;20211;-79
2022/03/07 05:46:55;;;;;;;5.73;3.63;;;;;;;2.03;89.08;94521.31;5114349;28;20183;-79
2022/03/07 05:49:20;;;;;;;5.53;3.90;;;;;;;2.18;89.47;94540.41;5103659;28;20186;-79
2022/03/07 05:51:46;;;;;;;6.10;3.80;;;;;;;2.22;88.68;94534.72;5103686;28;20177;-79
2022/03/07 05:54:11;;;;;;;6.00;3.50;;;;;;;2.06;88.72;94521.78;5106079;28;20238;-79
2022/03/07 05:56:37;;;;;;;8.23;4.27;;;;;;;2.12;88.32;94528.91;5106688;28;20196;-79
2022/03/07 05:59:02;;;;;;;7.33;3.60;;;;;;;2.18;88.13;94546.41;5105909;28;20185;-79
2022/03/07 06:01:28;;;;;;;6.40;4.07;;;;;;;2.19;88.91;94549.81;5094991;28;20196;-79
2022/03/07 06:03:53;;;;;;;5.83;3.63;;;;;;;2.16;88.92;94535.38;5102273;28;20189;-79
2022/03/07 06:06:19;;;;;;;3.67;3.00;;;;;;;2.15;88.23;94522.56;5103667;28;20550;-79
2022/03/07 06:08:44;;;;;;;5.40;3.60;;;;;;;2.13;87.02;94527.13;5106590;28;20253;-79
2022/03/07 06:11:09;;;;;;;3.97;3.20;;;;;;;2.20;87.31;94546.25;5099868;28;20170;-79
2022/03/07 06:13:35;;;;;;;4.20;3.03;;;;;;;2.08;87.57;94540.59;5093643;28;20638;-79
2022/03/07 06:16:00;;;;;;;3.53;3.20;;;;;;;1.98;88.20;94528.78;5103421;28;20182;-79
2022/03/07 06:18:26;;;;;;;4.60;3.07;;;;;;;2.08;87.88;94544.97;5107020;28;20222;-79
2022/03/07 06:20:51;;;;;;;4.70;3.37;;;;;;;1.84;87.94;94522.47;5103552;28;20178;-79
2022/03/07 06:23:17;;;;;;;5.87;3.70;;;;;;;1.92;88.21;94545.81;5103015;28;20177;-79
2022/03/07 06:25:42;;;;;;;5.30;3.80;;;;;;;1.88;88.51;94534.97;5104303;28;20177;-79
2022/03/07 06:28:09;;;;;;;8.03;3.93;;;;;;;1.90;88.65;94543.38;5102358;28;20193;-79
2022/03/07 06:30:34;;;;;;;8.07;3.53;;;;;;;2.00;89.04;94534.59;5110285;28;20184;-79
2022/03/07 06:33:00;;;;;;;5.97;3.73;;;;;;;2.14;88.90;94547.72;5104671;28;20173;-79
2022/03/07 06:35:25;;;;;;;6.00;3.63;;;;;;;2.11;88.88;94536.84;5102689;28;20668;-79
2022/03/07 06:37:52;;;;;;;7.87;4.30;;;;;;;2.24;89.45;94540.56;5103002;28;20226;-79
2022/03/07 06:40:19;;;;;;;4.63;3.13;;;;;;;2.40;88.41;94552.66;5104424;28;20174;-79
2022/03/07 06:42:48;;;;;;;5.33;3.30;;;;;;;2.42;87.23;94555.88;5100698;28;20177;-79
2022/03/07 06:45:16;;;;;;;3.47;3.03;;;;;;;2.44;87.54;94555.72;5094108;28;20571;-79
2022/03/07 06:47:43;;;;;;;4.93;3.77;;;;;;;2.51;87.69;94552.28;5094016;28;20200;-80
2022/03/07 06:50:09;;;;;;;5.30;3.53;;;;;;;2.48;88.05;94523.25;5094631;28;20173;-80
2022/03/07 06:52:34;;;;;;;5.30;3.83;;;;;;;2.71;87.27;94549.28;5093940;28;20173;-80
2022/03/07 06:55:00;;;;;;;8.17;3.87;;;;;;;2.57;86.97;94512.66;5093900;28;20610;-80
2022/03/07 06:57:25;;;;;;;9.30;4.60;;;;;;;2.63;86.52;94526.75;5103274;28;20212;-80
2022/03/07 06:59:51;;;;;;;5.03;3.70;;;;;;;2.60;86.31;94532.25;5105960;27;20173;-80
2022/03/07 07:02:16;;;;;;;6.73;4.53;;;;;;;2.53;86.86;94506.16;5105686;27;20175;-80
2022/03/07 07:04:42;;;;;;;6.33;3.97;;;;;;;2.81;87.22;94548.09;5104663;28;20174;-80
2022/03/07 07:07:08;;;;;;;6.30;4.70;;;;;;;2.74;86.05;94536.75;5105367;28;20196;-79
2022/03/07 07:09:34;;;;;;;7.40;4.63;;;;;;;2.76;86.69;94539.19;5105665;28;20181;-80
2022/03/07 07:11:59;;;;;;;7.40;4.70;;;;;;;2.71;85.99;94536.28;5102675;28;20281;-80
2022/03/07 07:14:25;;;;;;;7.50;4.50;;;;;;;2.62;85.26;94531.13;5108052;28;20177;-79
2022/03/07 07:16:50;;;;;;;6.00;4.07;;;;;;;2.80;86.06;94556.03;5113559;28;20200;-79
2022/03/07 07:19:16;;;;;;;8.97;4.63;;;;;;;2.73;86.36;94536.91;5101972;28;20252;-79
2022/03/07 07:21:41;;;;;;;7.17;4.50;;;;;;;2.93;86.32;94551.91;5102121;28;20218;-80
2022/03/07 07:24:08;;;;;;;7.60;4.40;;;;;;;2.83;85.90;94542.72;5104239;28;20566;-80
2022/03/07 07:26:33;;;;;;;6.73;4.40;;;;;;;2.72;85.32;94530.09;5105028;28;20660;-79
2022/03/07 07:28:59;;;;;;;8.57;4.43;;;;;;;2.90;86.47;94557.44;5105048;28;20261;-80
2022/03/07 07:31:24;;;;;;;9.00;5.07;;;;;;;2.97;86.36;94563.59;5111670;28;20188;-79
2022/03/07 07:33:50;;;;;;;8.47;4.93;;;;;;;3.06;86.42;94560.94;5100511;28;20212;-80
2022/03/07 07:36:15;;;;;;;7.73;4.87;;;;;;;2.92;85.85;94537.31;5100399;28;20248;-80
2022/03/07 07:38:41;;;;;;;10.70;6.03;;;;;;;3.11;85.59;94558.63;5105120;28;20612;-80
2022/03/07 07:41:07;;;;;;;11.90;6.40;;;;;;;3.07;85.86;94545.16;5112621;28;20157;-80
2022/03/07 07:43:32;;;;;;;11.17;6.70;;;;;;;3.10;84.49;94562.22;5101789;28;20184;-80
2022/03/07 07:45:58;;;;;;;11.67;6.80;;;;;;;2.93;84.56;94538.94;5100702;28;20227;-80
2022/03/07 07:48:23;;;;;;;12.10;6.30;;;;;;;3.03;84.90;94567.28;5100689;28;20201;-80
2022/03/07 07:50:49;;;;;;;12.30;7.47;;;;;;;3.05;85.74;94578.31;5104391;28;20181;-80
2022/03/07 07:53:14;;;;;;;13.03;7.17;;;;;;;3.02;86.16;94566.50;5105025;28;20252;-80
2022/03/07 07:55:39;;;;;;;10.87;7.07;;;;;;;3.13;86.04;94574.84;5104684;28;20173;-80
2022/03/07 07:58:05;;;;;;;10.33;6.90;;;;;;;3.13;85.41;94578.25;5100498;28;20578;-80
2022/03/07 08:00:30;;;;;;;10.50;6.50;;;;;;;3.12;85.93;94579.25;5102916;28;20189;-80
2022/03/07 08:02:56;;;;;;;11.70;7.23;;;;;;;3.14;85.29;94577.28;5112898;28;20181;-80
2022/03/07 08:05:21;;;;;;;9.73;7.20;;;;;;;2.85;85.68;94536.38;5106990;28;20651;-80
2022/03/07 08:07:47;;;;;;;12.57;7.40;;;;;;;3.13;85.80;94580.88;5103184;28;20196;-80
2022/03/07 08:10:15;;;;;;;11.90;7.17;;;;;;;2.90;85.63;94543.66;5113247;28;20169;-80
2022/03/07 08:12:41;;;;;;;12.20;6.70;;;;;;;3.06;85.87;94563.53;5113115;28;20173;-80
2022/03/07 08:15:11;;;;;;;12.30;7.77;;;;;;;3.23;85.87;94584.06;5104245;28;20279;-80
2022/03/07 08:17:49;;;;;;;12.63;7.73;;;;;;;3.28;85.07;94573.97;5104251;28;20165;-80
2022/03/07 08:20:27;;;;;;;11.23;7.33;;;;;;;3.30;84.95;94584.97;5106251;28;20168;-79
2022/03/07 08:22:53;;;;;;;14.93;7.63;;;;;;;3.24;85.56;94569.25;5112831;28;20690;-80
2022/03/07 08:25:20;;;;;;;20.27;10.00;;;;;;;3.20;85.46;94574.00;5092473;28;20219;-79
2022/03/07 08:27:45;;;;;;;11.40;7.17;;;;;;;3.07;85.68;94555.56;5093812;28;20749;-81
2022/03/07 08:30:13;;;;;;;12.40;6.97;;;;;;;3.31;85.38;94589.19;5112433;28;20200;-80
2022/03/07 08:32:40;;;;;;;11.80;7.07;;;;;;;3.16;84.60;94564.94;5100820;28;20642;-80
2022/03/07 08:35:07;;;;;;;13.37;7.43;;;;;;;3.38;84.39;94586.72;5103634;28;20633;-80
2022/03/07 08:37:33;;;;;;;10.80;6.10;;;;;;;3.46;84.33;94591.06;5098563;28;20642;-80
2022/03/07 08:39:59;;;;;;;11.90;6.90;;;;;;;3.22;84.18;94561.63;5106660;28;20579;-80
2022/03/07 08:42:25;;;;;;;10.77;6.60;;;;;;;3.44;84.53;94591.25;5104118;28;20554;-80
2022/03/07 08:44:52;;;;;;;10.77;5.70;;;;;;;3.37;84.40;94577.31;5100756;28;20177;-81
2022/03/07 08:47:17;;;;;;;8.87;4.93;;;;;;;3.14;83.25;94537.47;5102576;28;20198;-82
2022/03/07 08:49:43;;;;;;;9.20;5.50;;;;;;;3.26;83.41;94559.50;5101401;28;20185;-82
2022/03/07 08:52:09;;;;;;;9.80;6.23;;;;;;;3.42;83.54;94583.59;5098785;28;20165;-82
2022/03/07 08:54:38;;;;;;;8.67;5.90;;;;;;;3.42;83.18;94572.38;5104235;28;20181;-82
2022/03/07 08:57:03;;;;;;;10.03;5.27;;;;;;;3.39;82.58;94570.13;5093535;28;20284;-82
2022/03/07 08:59:29;;;;;;;8.90;5.70;;;;;;;3.50;82.93;94571.50;5108053;28;20307;-82
2022/03/07 09:01:56;;;;;;;9.23;5.67;;;;;;;3.44;82.97;94561.81;5108509;28;20611;-81
2022/03/07 09:04:24;;;;;;;23.10;6.87;;;;;;;3.50;83.01;94561.91;5101624;28;20169;-81
2022/03/07 09:06:50;;;;;;;17.33;8.63;;;;;;;3.72;82.96;94594.91;5094815;28;20197;-80
2022/03/07 09:09:15;;;;;;;15.20;8.43;;;;;;;3.77;82.47;94591.78;5111702;28;20990;-80
2022/03/07 09:11:41;;;;;;;17.43;6.97;;;;;;;3.61;82.32;94574.53;5106731;28;20192;-80
2022/03/07 09:14:07;;;;;;;10.63;6.07;;;;;;;3.69;81.89;94592.66;5104177;28;20189;-80
2022/03/07 09:16:33;;;;;;;10.00;6.90;;;;;;;3.76;81.89;94592.78;5107113;28;20606;-81
2022/03/07 09:18:58;;;;;;;15.53;8.50;;;;;;;3.59;81.96;94566.06;5104220;28;20166;-80
2022/03/07 09:21:23;;;;;;;14.87;7.47;;;;;;;3.52;82.33;94546.94;5106289;28;20245;-81
2022/03/07 09:23:49;;;;;;;11.23;5.60;;;;;;;3.80;82.21;94584.41;5109618;28;20219;-80
2022/03/07 09:26:15;;;;;;;10.10;6.03;;;;;;;3.88;81.93;94583.56;5098004;28;20154;-82
2022/03/07 09:28:40;;;;;;;10.60;5.47;;;;;;;3.71;81.73;94550.84;5107234;28;20562;-80
2022/03/07 09:31:08;;;;;;;9.83;6.07;;;;;;;4.01;81.71;94581.16;5112730;28;20630;-80
2022/03/07 09:33:34;;;;;;;7.93;5.17;;;;;;;4.07;80.94;94585.63;5107162;28;20219;-80
2022/03/07 09:35:59;;;;;;;10.00;5.50;;;;;;;3.99;79.24;94562.28;5106965;28;20193;-80
2022/03/07 09:38:27;;;;;;;8.17;5.17;;;;;;;4.03;76.74;94583.59;5106922;28;20244;-80
2022/03/07 09:40:53;;;;;;;10.17;4.83;;;;;;;4.00;77.83;94581.31;5112096;28;20188;-81
2022/03/07 09:43:19;;;;;;;7.70;4.77;;;;;;;3.99;78.15;94580.50;5102069;28;20182;-80
2022/03/07 09:46:00;;;;;;;6.30;4.27;;;;;;;3.90;78.26;94570.34;5110852;28;20180;-80
2022/03/07 09:48:26;;;;;;;6.30;4.00;;;;;;;3.88;77.71;94573.16;5098974;28;20189;-80
2022/03/07 09:50:52;;;;;;;5.93;3.77;;;;;;;3.97;77.68;94579.09;5110977;28;20260;-80
2022/03/07 09:53:18;;;;;;;7.60;4.10;;;;;;;3.76;76.78;94546.72;5103200;27;20248;-81
2022/03/07 09:55:46;;;;;;;8.67;4.20;;;;;;;3.96;77.64;94567.06;5109739;28;20177;-80
2022/03/07 09:58:12;;;;;;;7.70;4.10;;;;;;;3.88;77.96;94549.72;5104195;28;20291;-80
2022/03/07 10:00:41;;;;;;;6.43;4.20;;;;;;;4.08;77.48;94571.63;5108861;28;20173;-81
2022/03/07 10:03:12;;;;;;;5.97;4.27;;;;;;;4.18;77.26;94571.38;5109909;28;20169;-81
2022/03/07 10:05:41;;;;;;;6.50;4.43;;;;;;;4.21;77.08;94583.25;5109721;28;20591;-80
2022/03/07 10:08:08;;;;;;;5.07;3.87;;;;;;;3.98;76.08;94555.47;5115281;28;20193;-86
2022/03/07 10:10:36;;;;;;;6.13;4.47;;;;;;;4.16;76.75;94576.75;5122627;27;20184;-84
2022/03/07 10:13:07;;;;;;;9.83;5.77;;;;;;;4.09;76.68;94559.44;5113508;27;20184;-83
2022/03/07 10:15:34;;;;;;;16.90;7.80;;;;;;;4.16;77.30;94584.56;5104693;28;20531;-83
2022/03/07 10:18:00;;;;;;;21.93;9.13;;;;;;;4.03;77.75;94563.56;5112470;28;20173;-83
2022/03/07 10:20:26;;;;;;;17.73;9.10;;;;;;;3.95;78.21;94555.84;5114667;28;20165;-83
2022/03/07 10:22:54;;;;;;;11.57;6.13;;;;;;;4.05;78.79;94572.00;5113686;28;20177;-83
2022/03/07 10:25:31;;;;;;;9.50;5.60;;;;;;;3.99;79.39;94557.09;5114971;28;20165;-83
2022/03/07 10:28:02;;;;;;;22.50;9.30;;;;;;;4.18;79.40;94576.59;5113443;28;20279;-83
2022/03/07 10:30:30;;;;;;;9.97;5.43;;;;;;;4.26;79.27;94579.09;5104902;28;20186;-82
2022/03/07 10:32:59;;;;;;;7.17;4.90;;;;;;;4.11;79.14;94539.22;5102819;28;20569;-82
2022/03/07 10:35:34;;;;;;;8.10;4.50;;;;;;;4.34;78.00;94573.00;5102895;28;20166;-83
2022/03/07 10:38:09;;;;;;;11.33;6.10;;;;;;;4.36;76.32;94576.25;5103172;28;20561;-84
2022/03/07 10:40:36;;;;;;;15.00;5.53;;;;;;;4.24;76.18;94575.88;5115315;28;20614;-84
2022/03/07 10:43:04;;;;;;;13.27;7.27;;;;;;;4.24;77.71;94573.25;5114722;28;20158;-84
2022/03/07 10:45:30;;;;;;;15.87;8.83;;;;;;;4.16;77.52;94563.75;5110861;28;20240;-84
2022/03/07 10:47:58;;;;;;;18.40;9.30;;;;;;;3.91;77.95;94519.91;5091142;28;20296;-84
2022/03/07 10:50:25;;;;;;;19.70;10.50;;;;;;;4.20;77.78;94563.41;5111055;28;20197;-84
2022/03/07 10:52:59;;;;;;;16.87;7.83;;;;;;;4.09;77.90;94536.00;5110701;28;20238;-84
2022/03/07 10:55:27;;;;;;;16.50;7.73;;;;;;;4.02;78.21;94524.69;5091002;27;20178;-84
2022/03/07 10:58:03;;;;;;;10.00;6.37;;;;;;;4.15;77.55;94536.06;5101851;28;20212;-84
2022/03/07 11:00:29;;;;;;;18.03;8.33;;;;;;;4.40;78.00;94567.09;5108868;28;20185;-84
2022/03/07 11:02:54;;;;;;;18.50;9.50;;;;;;;4.15;77.39;94519.66;5103529;28;20220;-84
2022/03/07 11:05:20;;;;;;;16.30;9.97;;;;;;;4.18;76.37;94525.31;5086763;28;20460;-84
2022/03/07 11:07:47;;;;;;;15.17;7.93;;;;;;;4.37;77.55;94554.41;5100848;28;20185;-84
2022/03/07 11:10:14;;;;;;;12.27;7.53;;;;;;;4.35;78.14;94548.56;5107402;28;20641;-84
2022/03/07 11:12:40;;;;;;;7.87;4.77;;;;;;;4.26;78.04;94532.22;5093933;28;20173;-84
2022/03/07 11:15:10;;;;;;;7.60;5.30;;;;;;;4.43;77.17;94556.28;5109977;28;20169;-84
2022/03/07 11:17:41;;;;;;;7.77;5.50;;;;;;;4.42;76.28;94557.28;5101216;28;20169;-84
2022/03/07 11:20:10;;;;;;;8.53;5.13;;;;;;;4.43;76.34;94567.53;5098587;28;20192;-84
2022/03/07 11:22:35;;;;;;;12.90;7.00;;;;;;;4.39;75.82;94562.88;5094397;28;20231;-84
2022/03/07 11:25:03;;;;;;;27.77;13.57;;;;;;;4.07;76.05;94506.72;5103114;28;20650;-84
2022/03/07 11:27:29;;;;;;;17.87;9.43;;;;;;;4.36;77.15;94558.00;5106571;28;20386;-84
2022/03/07 11:29:55;;;;;;;24.87;11.93;;;;;;;3.91;76.11;94496.47;5092737;28;20709;-84
2022/03/07 11:32:21;;;;;;;22.20;10.43;;;;;;;3.92;76.70;94503.31;5095800;28;20166;-84
2022/03/07 11:35:02;;;;;;;16.40;8.37;;;;;;;4.13;77.07;94532.88;5099128;28;20170;-84
2022/03/07 11:37:29;;;;;;;15.37;8.83;;;;;;;4.16;77.38;94534.28;5099781;28;20196;-84
2022/03/07 11:39:58;;;;;;;16.73;10.03;;;;;;;4.22;77.63;94545.81;5099037;28;20176;-84
2022/03/07 11:42:34;;;;;;;20.73;10.33;;;;;;;4.24;78.39;94542.00;5097242;28;20181;-85
2022/03/07 11:45:13;;;;;;;137.23;60.07;;;;;;;4.28;78.36;94530.25;5110533;28;20180;-85
2022/03/07 11:47:39;;;;;;;38.67;19.03;;;;;;;4.37;78.12;94533.56;5101001;28;20188;-84
2022/03/07 11:50:06;;;;;;;14.67;7.77;;;;;;;4.37;76.77;94533.56;5106766;28;20165;-84
2022/03/07 11:52:31;;;;;;;13.27;8.07;;;;;;;4.24;76.40;94515.19;5111195;28;20177;-84
2022/03/07 11:55:00;;;;;;;19.80;10.87;;;;;;;4.37;77.25;94525.75;5105892;28;20231;-84
2022/03/07 11:57:36;;;;;;;16.97;8.73;;;;;;;4.38;76.79;94522.16;5099914;28;20291;-83